Time;durP1;ratioP1;P1;durP2;ratioP2;P2;SDS_P1;SDS_P2;PMS_P1;PMS_P2;Temp;Humidity;BMP_temperature;BMP_pressure;BME280_temperature;BME280_humidity;BME280_pressure;Samples;Min_cycle;Max_cycle;Signal;HPM_P1;HPM_P2
2021/01/29 00:02:13;;;;;;;0.00;0.00;;;9.40;99.90;;;;;;5034909;28;20208;-81
2021/01/29 00:04:44;;;;;;;0.13;0.13;;;9.40;99.90;;;;;;5023193;28;20186;-80
2021/01/29 00:07:12;;;;;;;0.10;0.10;;;9.40;99.90;;;;;;5030458;28;20193;-79
2021/01/29 00:09:37;;;;;;;0.00;0.00;;;9.50;99.90;;;;;;5028464;28;20406;-80
2021/01/29 00:12:04;;;;;;;0.10;0.10;;;9.50;99.90;;;;;;5028040;28;20322;-80
2021/01/29 00:14:30;;;;;;;0.10;0.10;;;9.50;99.90;;;;;;5029005;28;20285;-80
2021/01/29 00:16:55;;;;;;;0.10;0.10;;;9.60;99.90;;;;;;5030559;28;20221;-81
2021/01/29 00:19:21;;;;;;;0.10;0.10;;;9.60;99.90;;;;;;5038057;28;20202;-81
2021/01/29 00:21:46;;;;;;;0.10;0.10;;;9.60;99.90;;;;;;5043396;28;20193;-80
2021/01/29 00:24:12;;;;;;;0.10;0.10;;;9.70;99.90;;;;;;5020368;28;20178;-79
2021/01/29 00:26:37;;;;;;;0.20;0.20;;;9.70;99.90;;;;;;5025943;28;20180;-80
2021/01/29 00:29:03;;;;;;;1.00;0.40;;;9.70;99.90;;;;;;5046181;28;20208;-80
2021/01/29 00:31:29;;;;;;;0.10;0.10;;;9.80;99.90;;;;;;5036672;28;20177;-80
2021/01/29 00:33:54;;;;;;;0.10;0.10;;;9.80;99.90;;;;;;5030515;28;20200;-79
2021/01/29 00:36:20;;;;;;;0.20;0.20;;;9.80;99.90;;;;;;5029633;28;20266;-81
2021/01/29 00:38:46;;;;;;;0.00;0.00;;;9.80;99.90;;;;;;5036969;28;20277;-80
2021/01/29 00:41:11;;;;;;;0.10;0.10;;;9.80;99.90;;;;;;5041060;28;20199;-80
2021/01/29 00:43:37;;;;;;;0.10;0.10;;;9.80;99.90;;;;;;5037827;28;20272;-80
2021/01/29 00:46:03;;;;;;;0.10;0.10;;;9.80;99.90;;;;;;5033625;28;20182;-80
2021/01/29 00:48:29;;;;;;;0.10;0.10;;;9.90;99.90;;;;;;5037665;28;20197;-78
2021/01/29 00:50:54;;;;;;;0.10;0.10;;;9.70;99.90;;;;;;5049041;28;20290;-80
2021/01/29 00:53:20;;;;;;;0.20;0.20;;;9.70;99.90;;;;;;5038942;28;20212;-80
2021/01/29 00:55:46;;;;;;;0.10;0.10;;;9.60;99.90;;;;;;5025261;28;20190;-78
2021/01/29 00:58:11;;;;;;;0.10;0.10;;;9.50;99.90;;;;;;5036075;28;20263;-80
2021/01/29 01:00:37;;;;;;;0.10;0.10;;;9.50;99.90;;;;;;5054918;28;20198;-79
2021/01/29 01:03:02;;;;;;;0.10;0.10;;;9.50;99.90;;;;;;5028579;28;20187;-80
2021/01/29 01:05:28;;;;;;;0.10;0.10;;;9.60;99.90;;;;;;5035755;28;20179;-81
2021/01/29 01:07:55;;;;;;;0.10;0.10;;;9.60;99.90;;;;;;5032994;28;20193;-80
2021/01/29 01:10:21;;;;;;;0.10;0.10;;;9.70;99.90;;;;;;5022843;28;20210;-81
2021/01/29 01:12:47;;;;;;;0.10;0.10;;;9.70;99.90;;;;;;5039268;28;20273;-80
2021/01/29 01:15:20;;;;;;;0.00;0.00;;;9.70;99.90;;;;;;5029759;28;20751;-80
2021/01/29 01:17:47;;;;;;;0.33;0.33;;;9.70;99.90;;;;;;5034806;28;20214;-83
2021/01/29 01:20:15;;;;;;;0.10;0.10;;;9.70;99.90;;;;;;5031864;28;20235;-83
2021/01/29 01:22:41;;;;;;;0.10;0.10;;;9.70;99.90;;;;;;5030599;28;20270;-82
2021/01/29 01:25:07;;;;;;;0.10;0.10;;;9.70;99.90;;;;;;5032376;28;20305;-83
2021/01/29 01:27:33;;;;;;;0.00;0.00;;;9.70;99.90;;;;;;5041577;28;20216;-83
2021/01/29 01:29:58;;;;;;;0.10;0.10;;;9.70;99.90;;;;;;5051512;28;20336;-82
2021/01/29 01:32:24;;;;;;;0.00;0.00;;;9.70;99.90;;;;;;5030856;28;20185;-83
2021/01/29 01:34:50;;;;;;;0.10;0.10;;;9.70;99.90;;;;;;5034268;28;20210;-82
2021/01/29 01:37:15;;;;;;;0.10;0.10;;;9.70;99.90;;;;;;5032013;28;20239;-82
2021/01/29 01:39:41;;;;;;;0.10;0.10;;;9.70;99.90;;;;;;5035469;28;20287;-83
2021/01/29 01:42:06;;;;;;;0.10;0.10;;;9.70;99.90;;;;;;5031052;28;20171;-83
2021/01/29 01:44:35;;;;;;;0.10;0.10;;;9.70;99.90;;;;;;5029940;28;20616;-83
2021/01/29 01:47:19;;;;;;;0.40;0.30;;;9.70;99.90;;;;;;5037130;28;20188;-83
2021/01/29 01:49:47;;;;;;;0.10;0.10;;;9.70;99.90;;;;;;5031307;28;20209;-83
2021/01/29 01:52:20;;;;;;;0.10;0.10;;;9.70;99.90;;;;;;5036369;28;20201;-83
2021/01/29 01:54:51;;;;;;;0.10;0.10;;;9.70;99.90;;;;;;5030464;28;20182;-82
2021/01/29 01:57:20;;;;;;;0.10;0.10;;;9.70;99.90;;;;;;5035146;28;20217;-83
2021/01/29 01:59:54;;;;;;;0.10;0.10;;;9.70;99.90;;;;;;5024599;28;20722;-80
2021/01/29 02:02:24;;;;;;;0.10;0.10;;;9.70;99.90;;;;;;5033216;28;20217;-83
2021/01/29 02:04:50;;;;;;;0.20;0.20;;;9.70;99.90;;;;;;5031556;28;20591;-81
2021/01/29 02:07:28;;;;;;;0.10;0.10;;;9.70;99.90;;;;;;5032008;28;20216;-81
2021/01/29 02:09:55;;;;;;;0.10;0.10;;;9.70;99.90;;;;;;5050699;28;20204;-82
2021/01/29 02:12:21;;;;;;;0.10;0.10;;;9.70;99.90;;;;;;5026758;28;20195;-83
2021/01/29 02:14:47;;;;;;;0.10;0.10;;;9.70;99.90;;;;;;5026608;28;20231;-83
2021/01/29 02:17:18;;;;;;;0.10;0.10;;;9.60;99.90;;;;;;5031484;28;20220;-83
2021/01/29 02:20:14;;;;;;;0.07;0.07;;;9.60;99.90;;;;;;5045003;28;20199;-82
2021/01/29 02:23:07;;;;;;;0.50;0.50;;;9.50;99.90;;;;;;5024683;28;20220;-82
2021/01/29 02:26:00;;;;;;;0.10;0.10;;;9.40;99.90;;;;;;5042387;28;20192;-83
2021/01/29 02:28:47;;;;;;;0.00;0.00;;;9.30;99.90;;;;;;5027818;28;20180;-82
2021/01/29 02:31:35;;;;;;;0.10;0.10;;;9.30;99.90;;;;;;5021170;28;20233;-81
2021/01/29 02:34:12;;;;;;;0.10;0.10;;;9.20;99.90;;;;;;5023341;28;20192;-82
2021/01/29 02:37:23;;;;;;;0.03;0.03;;;9.20;99.90;;;;;;5042880;28;20188;-83
2021/01/29 02:40:00;;;;;;;0.10;0.10;;;9.30;99.90;;;;;;5028310;28;21123;-82
2021/01/29 02:42:31;;;;;;;0.03;0.03;;;9.40;99.90;;;;;;5025359;28;20586;-80
2021/01/29 02:45:04;;;;;;;0.10;0.10;;;9.40;99.90;;;;;;5045423;28;20197;-81
2021/01/29 02:47:35;;;;;;;0.27;0.27;;;9.10;99.90;;;;;;5032602;28;20182;-80
2021/01/29 02:50:37;;;;;;;0.10;0.10;;;9.00;99.90;;;;;;5043691;28;20727;-80
2021/01/29 02:53:37;;;;;;;0.10;0.10;;;8.90;99.90;;;;;;5048523;28;20185;-80
2021/01/29 02:56:24;;;;;;;0.27;0.27;;;8.90;99.90;;;;;;5034513;28;20822;-80
2021/01/29 02:58:59;;;;;;;0.37;0.13;;;8.90;99.90;;;;;;5044341;28;20191;-80
2021/01/29 03:01:42;;;;;;;0.10;0.10;;;9.00;99.90;;;;;;5038837;28;20233;-80
2021/01/29 03:04:18;;;;;;;0.97;0.37;;;9.10;99.90;;;;;;5046506;28;20177;-79
2021/01/29 03:06:52;;;;;;;0.30;0.30;;;9.20;99.90;;;;;;5030820;28;20210;-80
2021/01/29 03:09:25;;;;;;;0.10;0.10;;;9.30;99.90;;;;;;5030936;28;20175;-81
2021/01/29 03:12:07;;;;;;;0.30;0.30;;;9.30;99.90;;;;;;5030681;28;20216;-80
2021/01/29 03:15:01;;;;;;;0.10;0.10;;;9.20;99.90;;;;;;5031876;28;20215;-78
2021/01/29 03:17:38;;;;;;;0.20;0.20;;;9.00;99.90;;;;;;5025600;28;20324;-79
2021/01/29 03:20:18;;;;;;;0.40;0.17;;;8.80;99.90;;;;;;5024187;28;20224;-80
2021/01/29 03:22:50;;;;;;;0.03;0.03;;;8.70;99.90;;;;;;5030462;28;20184;-80
2021/01/29 03:25:27;;;;;;;0.30;0.30;;;8.60;99.90;;;;;;5033286;28;20609;-80
2021/01/29 03:27:59;;;;;;;1.20;0.47;;;8.60;99.90;;;;;;5020043;28;20276;-82
2021/01/29 03:30:30;;;;;;;0.20;0.20;;;8.60;99.90;;;;;;5044522;28;20589;-82
2021/01/29 03:32:58;;;;;;;0.20;0.10;;;8.60;99.90;;;;;;5030805;28;20181;-82
2021/01/29 03:35:36;;;;;;;0.10;0.10;;;8.60;99.90;;;;;;5026923;28;20236;-78
2021/01/29 03:38:19;;;;;;;0.10;0.10;;;8.60;99.90;;;;;;5032384;28;20291;-78
2021/01/29 03:40:52;;;;;;;0.83;0.20;;;8.80;99.90;;;;;;5029368;28;20194;-79
2021/01/29 03:43:44;;;;;;;0.10;0.10;;;8.80;99.90;;;;;;5051799;28;20624;-79
2021/01/29 03:46:09;;;;;;;0.10;0.10;;;8.60;99.90;;;;;;5025201;28;20185;-80
2021/01/29 03:48:54;;;;;;;0.10;0.10;;;8.80;99.90;;;;;;5031112;28;20245;-79
2021/01/29 03:51:45;;;;;;;0.33;0.20;;;8.80;99.90;;;;;;5030095;28;20211;-79
2021/01/29 03:54:32;;;;;;;0.10;0.10;;;8.80;99.90;;;;;;5027636;28;20183;-80
2021/01/29 03:57:03;;;;;;;0.40;0.33;;;8.70;99.90;;;;;;5035249;28;20186;-79
2021/01/29 04:00:06;;;;;;;0.20;0.20;;;8.50;99.90;;;;;;5032269;28;20282;-78
2021/01/29 04:02:55;;;;;;;0.10;0.10;;;8.60;99.90;;;;;;5050965;28;20524;-80
2021/01/29 04:05:42;;;;;;;0.43;0.17;;;8.70;99.90;;;;;;5037976;28;20192;-80
2021/01/29 04:08:14;;;;;;;0.10;0.10;;;8.40;99.90;;;;;;5037899;28;20182;-78
2021/01/29 04:10:45;;;;;;;0.10;0.10;;;8.40;99.90;;;;;;5023046;28;20206;-79
2021/01/29 04:13:16;;;;;;;0.00;0.00;;;8.40;99.90;;;;;;5019490;28;20210;-80
2021/01/29 04:15:48;;;;;;;0.20;0.20;;;8.60;99.90;;;;;;5029538;28;20206;-79
2021/01/29 04:18:20;;;;;;;0.10;0.10;;;8.40;99.90;;;;;;5032741;28;20219;-82
2021/01/29 04:21:07;;;;;;;0.10;0.10;;;8.60;99.90;;;;;;5048443;28;20702;-82
2021/01/29 04:23:51;;;;;;;0.10;0.10;;;8.40;99.90;;;;;;5046296;28;20183;-82
2021/01/29 04:26:20;;;;;;;0.00;0.00;;;8.40;99.90;;;;;;5031015;28;20244;-82
2021/01/29 04:28:54;;;;;;;0.10;0.10;;;8.40;99.90;;;;;;5047675;28;20180;-82
2021/01/29 04:31:23;;;;;;;0.30;0.30;;;8.30;99.90;;;;;;5029117;28;20790;-82
2021/01/29 04:33:57;;;;;;;0.10;0.10;;;8.30;99.90;;;;;;5023495;28;20182;-83
2021/01/29 04:36:28;;;;;;;0.03;0.03;;;8.20;99.90;;;;;;5037582;28;21473;-82
2021/01/29 04:39:03;;;;;;;0.07;0.07;;;8.30;99.90;;;;;;5029800;28;20239;-82
2021/01/29 04:41:32;;;;;;;0.37;0.30;;;8.50;99.90;;;;;;5014243;28;20171;-82
2021/01/29 04:44:23;;;;;;;0.00;0.00;;;8.40;99.90;;;;;;5031708;28;20249;-83
2021/01/29 04:47:08;;;;;;;0.10;0.10;;;8.50;99.90;;;;;;5037836;28;20709;-83
2021/01/29 04:49:45;;;;;;;0.10;0.10;;;8.50;99.90;;;;;;5061531;28;20205;-82
2021/01/29 04:52:48;;;;;;;0.10;0.10;;;8.60;99.90;;;;;;5020454;28;20192;-82
2021/01/29 04:55:39;;;;;;;0.10;0.10;;;8.70;99.90;;;;;;5022827;28;20212;-83
2021/01/29 04:58:15;;;;;;;0.10;0.10;;;8.70;99.90;;;;;;5028709;28;20197;-83
2021/01/29 05:00:59;;;;;;;0.43;0.20;;;8.70;99.90;;;;;;5049161;28;20227;-83
2021/01/29 05:03:51;;;;;;;0.17;0.10;;;8.60;99.90;;;;;;5014299;28;20178;-82
2021/01/29 05:07:02;;;;;;;0.00;0.00;;;8.60;99.90;;;;;;5039608;28;20174;-83
2021/01/29 05:09:52;;;;;;;0.10;0.10;;;8.50;99.90;;;;;;5028551;28;20207;-83
2021/01/29 05:12:39;;;;;;;0.17;0.17;;;8.60;99.90;;;;;;5036395;28;20187;-83
2021/01/29 05:15:39;;;;;;;0.10;0.10;;;8.60;99.90;;;;;;5022375;28;20279;-83
2021/01/29 05:18:07;;;;;;;0.10;0.10;;;8.80;99.90;;;;;;5036656;28;20221;-83
2021/01/29 05:21:07;;;;;;;0.10;0.10;;;8.90;99.90;;;;;;5023112;28;20197;-83
2021/01/29 05:24:10;;;;;;;0.03;0.03;;;8.90;99.90;;;;;;5037568;28;20181;-83
2021/01/29 05:27:05;;;;;;;0.27;0.27;;;8.70;99.90;;;;;;5041009;28;20422;-83
2021/01/29 05:29:55;;;;;;;0.37;0.37;;;8.60;99.90;;;;;;5039464;28;20206;-82
2021/01/29 05:32:20;;;;;;;0.20;0.20;;;8.70;99.90;;;;;;5028812;28;20254;-83
2021/01/29 05:35:04;;;;;;;0.10;0.10;;;8.80;99.90;;;;;;5039869;28;20214;-82
2021/01/29 05:41:38;;;;;;;0.20;0.20;;;8.80;99.90;;;;;;5041936;28;20297;-87
2021/01/29 05:44:42;;;;;;;0.30;0.30;;;9.00;99.90;;;;;;5039749;28;20657;-82
2021/01/29 05:47:13;;;;;;;0.17;0.17;;;9.10;99.90;;;;;;5037938;28;20184;-84
2021/01/29 05:50:05;;;;;;;0.10;0.10;;;9.10;99.90;;;;;;5043792;28;20282;-83
2021/01/29 05:52:54;;;;;;;0.17;0.17;;;9.20;99.90;;;;;;5034627;28;20711;-85
2021/01/29 05:55:30;;;;;;;0.10;0.10;;;9.30;99.90;;;;;;5034679;28;20182;-85
2021/01/29 05:58:10;;;;;;;0.10;0.10;;;9.40;99.90;;;;;;5035411;28;20290;-82
2021/01/29 06:00:41;;;;;;;0.57;0.23;;;9.40;99.90;;;;;;5038620;28;20199;-83
2021/01/29 06:03:32;;;;;;;0.90;0.30;;;9.50;99.90;;;;;;5045588;28;20202;-82
2021/01/29 06:09:44;;;;;;;0.10;0.10;;;9.50;99.90;;;;;;5044529;28;20542;-82
2021/01/29 06:12:40;;;;;;;0.23;0.23;;;9.40;99.90;;;;;;5045976;28;20189;-84
2021/01/29 06:15:36;;;;;;;0.20;0.20;;;9.30;99.90;;;;;;5037460;28;20198;-84
2021/01/29 06:18:26;;;;;;;0.10;0.10;;;9.40;99.90;;;;;;5045604;28;20214;-83
2021/01/29 06:20:52;;;;;;;0.27;0.27;;;9.50;99.90;;;;;;5042568;28;20283;-82
2021/01/29 06:23:29;;;;;;;0.73;0.73;;;9.40;99.90;;;;;;5042559;28;20177;-83
2021/01/29 06:26:07;;;;;;;0.63;0.63;;;9.40;99.90;;;;;;5039078;28;20594;-82
2021/01/29 06:29:00;;;;;;;0.73;0.53;;;9.10;99.90;;;;;;5055951;28;20185;-82
2021/01/29 06:31:47;;;;;;;2.60;0.10;;;9.10;99.90;;;;;;5035345;28;20699;-83
2021/01/29 06:34:16;;;;;;;0.10;0.10;;;9.30;99.90;;;;;;5043011;28;20184;-82
2021/01/29 06:36:48;;;;;;;0.20;0.20;;;9.40;99.90;;;;;;5033001;28;20187;-83
2021/01/29 06:39:34;;;;;;;0.50;0.50;;;9.50;99.90;;;;;;5030643;28;20211;-82
2021/01/29 06:42:07;;;;;;;0.20;0.20;;;9.50;99.90;;;;;;5051816;28;20236;-81
2021/01/29 06:44:51;;;;;;;0.10;0.10;;;9.50;99.90;;;;;;5037687;28;22040;-84
2021/01/29 06:47:38;;;;;;;0.43;0.27;;;9.50;99.90;;;;;;5043780;28;20681;-85
2021/01/29 06:50:41;;;;;;;0.00;0.00;;;9.50;99.90;;;;;;5037558;28;20290;-85
2021/01/29 06:53:44;;;;;;;0.00;0.00;;;9.50;99.90;;;;;;5043688;28;20204;-82
2021/01/29 06:56:17;;;;;;;0.10;0.10;;;9.50;99.90;;;;;;5036762;28;20178;-83
2021/01/29 06:59:13;;;;;;;0.10;0.10;;;9.50;99.90;;;;;;5015224;28;20211;-82
2021/01/29 07:02:07;;;;;;;0.10;0.10;;;9.50;99.90;;;;;;5027162;28;20173;-82
2021/01/29 07:04:51;;;;;;;0.10;0.10;;;9.40;99.90;;;;;;5043982;28;20209;-83
2021/01/29 07:07:32;;;;;;;0.10;0.10;;;9.40;99.90;;;;;;5036735;28;20172;-83
2021/01/29 07:13:59;;;;;;;0.10;0.10;;;9.40;99.90;;;;;;5026808;28;20218;-82
2021/01/29 07:16:56;;;;;;;0.00;0.00;;;9.30;99.90;;;;;;5026928;28;20181;-84
2021/01/29 07:19:46;;;;;;;0.17;0.17;;;9.40;99.90;;;;;;5021932;28;20203;-84
2021/01/29 07:22:24;;;;;;;0.07;0.07;;;9.30;99.90;;;;;;5025918;28;20664;-83
2021/01/29 07:25:20;;;;;;;0.10;0.10;;;9.30;99.90;;;;;;5026164;28;20210;-84
2021/01/29 07:28:24;;;;;;;0.00;0.00;;;9.30;99.90;;;;;;5047656;28;20182;-83
2021/01/29 07:31:02;;;;;;;0.27;0.27;;;9.30;99.90;;;;;;5032802;28;20246;-83
2021/01/29 07:33:38;;;;;;;0.10;0.10;;;9.30;99.90;;;;;;5049024;28;20215;-83
2021/01/29 07:36:39;;;;;;;0.10;0.10;;;9.30;99.90;;;;;;5035312;28;20699;-83
2021/01/29 07:39:04;;;;;;;0.10;0.10;;;9.30;99.90;;;;;;5031934;28;20577;-83
2021/01/29 07:45:30;;;;;;;0.00;0.00;;;9.20;99.90;;;;;;5032275;28;20182;-83
2021/01/29 07:48:29;;;;;;;0.10;0.10;;;9.20;99.90;;;;;;5040240;28;20191;-84
2021/01/29 07:51:07;;;;;;;0.10;0.10;;;9.20;99.90;;;;;;5025028;28;20202;-83
2021/01/29 07:57:40;;;;;;;0.00;0.00;;;9.20;99.90;;;;;;5036487;28;20210;-82
2021/01/29 08:00:20;;;;;;;0.00;0.00;;;9.20;99.90;;;;;;5017779;28;20221;-83
2021/01/29 08:03:05;;;;;;;0.00;0.00;;;9.20;99.90;;;;;;5032155;28;20181;-85
2021/01/29 08:05:53;;;;;;;0.10;0.10;;;9.20;99.90;;;;;;5039760;28;20268;-82
2021/01/29 08:08:23;;;;;;;0.10;0.10;;;9.20;99.90;;;;;;5040823;28;20251;-82
2021/01/29 08:11:03;;;;;;;0.10;0.10;;;9.20;99.90;;;;;;5032396;28;20202;-83
2021/01/29 08:13:32;;;;;;;0.10;0.10;;;9.30;99.90;;;;;;5035722;28;20194;-83
2021/01/29 08:16:15;;;;;;;0.10;0.10;;;9.30;99.90;;;;;;5043396;28;20199;-84
2021/01/29 08:19:01;;;;;;;0.10;0.10;;;9.30;99.90;;;;;;5052484;28;20232;-86
2021/01/29 08:21:26;;;;;;;0.00;0.00;;;9.30;99.90;;;;;;5056483;28;20198;-87
2021/01/29 08:24:40;;;;;;;0.10;0.10;;;9.30;99.90;;;;;;5053159;28;20193;-83
2021/01/29 08:27:11;;;;;;;0.07;0.07;;;9.30;99.90;;;;;;5043791;28;20705;-84
2021/01/29 08:30:02;;;;;;;0.10;0.10;;;9.30;99.90;;;;;;5049765;28;20212;-86
2021/01/29 08:32:28;;;;;;;0.10;0.10;;;9.30;99.90;;;;;;5042261;28;20738;-85
2021/01/29 08:34:56;;;;;;;0.00;0.00;;;9.30;99.90;;;;;;5039317;28;20219;-85
2021/01/29 08:37:35;;;;;;;0.83;0.80;;;9.30;99.90;;;;;;5037241;28;20200;-85
2021/01/29 08:40:22;;;;;;;0.10;0.10;;;9.40;99.90;;;;;;5030409;28;20256;-86
2021/01/29 08:43:43;;;;;;;0.10;0.10;;;9.40;99.90;;;;;;5021013;28;20187;-85
2021/01/29 08:46:46;;;;;;;0.10;0.10;;;9.50;99.90;;;;;;5042653;28;20666;-83
2021/01/29 08:49:28;;;;;;;0.10;0.10;;;9.50;99.90;;;;;;5029144;28;20190;-87
2021/01/29 08:52:30;;;;;;;0.10;0.10;;;9.60;99.90;;;;;;5041420;28;20202;-83
2021/01/29 08:55:09;;;;;;;0.10;0.10;;;9.60;99.90;;;;;;5033470;28;20205;-83
2021/01/29 09:00:57;;;;;;;0.10;0.10;;;9.70;99.90;;;;;;5025710;28;20304;-83
2021/01/29 09:03:52;;;;;;;0.00;0.00;;;9.70;99.90;;;;;;5040782;28;20261;-82
2021/01/29 09:06:22;;;;;;;0.10;0.10;;;9.80;99.90;;;;;;5034835;28;20202;-82
2021/01/29 09:09:03;;;;;;;0.10;0.10;;;9.80;99.90;;;;;;5028643;28;20729;-82
2021/01/29 09:11:49;;;;;;;0.07;0.07;;;9.90;99.90;;;;;;5043608;28;20586;-82
2021/01/29 09:14:22;;;;;;;0.30;0.20;;;9.90;99.90;;;;;;5043781;28;20241;-82
2021/01/29 09:16:48;;;;;;;0.00;0.00;;;9.90;99.90;;;;;;5044040;28;20585;-83
2021/01/29 09:19:17;;;;;;;5.30;0.20;;;9.90;99.90;;;;;;5049049;28;20264;-82
2021/01/29 09:21:52;;;;;;;0.10;0.10;;;10.00;99.90;;;;;;5049308;28;20191;-82
2021/01/29 09:24:36;;;;;;;0.10;0.10;;;10.00;99.90;;;;;;5048238;28;20243;-82
2021/01/29 09:27:04;;;;;;;0.10;0.10;;;10.10;99.90;;;;;;5053372;28;20221;-82
2021/01/29 09:29:34;;;;;;;0.10;0.10;;;10.00;99.90;;;;;;5042728;28;20217;-83
2021/01/29 09:32:04;;;;;;;0.00;0.00;;;10.10;99.90;;;;;;5032402;28;20184;-81
2021/01/29 09:34:50;;;;;;;0.10;0.10;;;10.10;99.90;;;;;;5029270;28;20186;-86
2021/01/29 09:37:23;;;;;;;0.10;0.10;;;10.10;99.90;;;;;;5038613;28;20207;-82
2021/01/29 09:39:58;;;;;;;0.30;0.30;;;10.10;99.90;;;;;;5038539;28;20268;-81
2021/01/29 09:42:42;;;;;;;0.20;0.20;;;10.20;99.90;;;;;;5037205;28;20948;-85
2021/01/29 09:45:16;;;;;;;0.30;0.30;;;10.20;99.90;;;;;;5030697;28;20270;-82
2021/01/29 09:47:44;;;;;;;0.10;0.10;;;10.20;99.90;;;;;;5039599;28;20191;-82
2021/01/29 09:50:18;;;;;;;0.00;0.00;;;10.20;99.90;;;;;;5027211;28;20767;-83
2021/01/29 09:53:05;;;;;;;0.30;0.30;;;10.20;99.90;;;;;;5031328;28;20196;-83
2021/01/29 09:55:40;;;;;;;2.03;0.40;;;10.30;99.90;;;;;;5039794;28;20195;-82
2021/01/29 09:58:30;;;;;;;0.10;0.10;;;10.30;99.90;;;;;;5036072;28;20267;-82
2021/01/29 10:01:19;;;;;;;0.40;0.40;;;10.30;99.90;;;;;;5045815;28;21173;-82
2021/01/29 10:04:07;;;;;;;0.13;0.13;;;10.30;99.90;;;;;;5027862;28;20603;-82
2021/01/29 10:06:43;;;;;;;0.87;0.87;;;10.40;99.90;;;;;;5041982;28;20554;-82
2021/01/29 10:09:15;;;;;;;0.10;0.10;;;10.40;99.90;;;;;;5031541;28;20255;-83
2021/01/29 10:11:56;;;;;;;1.80;0.77;;;10.50;99.90;;;;;;5043144;28;20189;-81
2021/01/29 10:14:27;;;;;;;0.10;0.10;;;10.50;99.90;;;;;;5041337;28;20258;-82
2021/01/29 10:17:20;;;;;;;0.10;0.10;;;10.60;99.90;;;;;;5034058;28;20729;-83
2021/01/29 10:19:55;;;;;;;0.30;0.30;;;10.70;99.90;;;;;;5057272;28;20220;-82
2021/01/29 10:22:38;;;;;;;0.10;0.10;;;10.80;99.90;;;;;;5045416;28;20193;-82
2021/01/29 10:25:43;;;;;;;0.33;0.33;;;10.80;99.90;;;;;;5041341;28;20792;-84
2021/01/29 10:28:44;;;;;;;0.10;0.10;;;10.90;99.90;;;;;;5022835;28;20254;-85
2021/01/29 10:31:12;;;;;;;0.10;0.10;;;10.90;99.90;;;;;;5050666;28;20287;-83
2021/01/29 10:33:42;;;;;;;0.13;0.13;;;10.90;99.90;;;;;;5036041;28;20187;-83
2021/01/29 10:36:18;;;;;;;1.37;0.43;;;10.90;99.90;;;;;;5039875;28;20266;-83
2021/01/29 10:38:49;;;;;;;0.07;0.07;;;11.00;99.90;;;;;;5031904;28;20254;-83
2021/01/29 10:41:35;;;;;;;0.03;0.03;;;11.00;99.90;;;;;;5034133;28;20291;-83
2021/01/29 10:44:21;;;;;;;0.00;0.00;;;11.00;99.90;;;;;;5049862;28;20189;-81
2021/01/29 10:47:13;;;;;;;0.00;0.00;;;11.00;99.90;;;;;;5050857;28;20185;-82
2021/01/29 10:49:53;;;;;;;0.10;0.10;;;11.00;99.90;;;;;;5032129;28;20292;-83
2021/01/29 10:52:41;;;;;;;0.10;0.10;;;11.10;99.90;;;;;;5042030;28;20185;-83
2021/01/29 10:55:25;;;;;;;0.10;0.10;;;11.10;99.90;;;;;;5037733;28;20198;-83
2021/01/29 10:58:28;;;;;;;0.10;0.10;;;11.10;99.90;;;;;;5038613;28;20212;-82
2021/01/29 11:01:01;;;;;;;0.30;0.30;;;11.10;99.90;;;;;;5037392;28;20197;-82
2021/01/29 11:03:50;;;;;;;0.00;0.00;;;11.30;99.90;;;;;;5033893;28;20188;-83
2021/01/29 11:06:19;;;;;;;2.10;0.57;;;11.30;99.90;;;;;;5036665;28;20685;-83
2021/01/29 11:08:53;;;;;;;0.17;0.17;;;11.30;99.90;;;;;;5027471;28;20662;-82
2021/01/29 11:11:55;;;;;;;0.10;0.10;;;11.30;99.90;;;;;;5031263;28;20588;-83
2021/01/29 11:14:40;;;;;;;0.20;0.20;;;11.30;99.90;;;;;;5044366;28;20213;-82
2021/01/29 11:17:11;;;;;;;0.13;0.13;;;11.40;99.90;;;;;;5034022;28;20192;-85
2021/01/29 11:19:42;;;;;;;0.13;0.13;;;11.40;99.90;;;;;;5015443;28;20208;-83
2021/01/29 11:25:49;;;;;;;0.10;0.10;;;11.30;99.90;;;;;;5026924;28;20190;-83
2021/01/29 11:28:30;;;;;;;1.30;0.20;;;11.20;99.90;;;;;;5016984;28;20181;-82
2021/01/29 11:31:02;;;;;;;0.10;0.10;;;11.10;99.90;;;;;;5037845;28;20208;-82
2021/01/29 11:33:31;;;;;;;0.67;0.07;;;11.20;99.90;;;;;;5038443;28;20191;-82
2021/01/29 11:36:12;;;;;;;1.93;0.47;;;11.30;99.90;;;;;;5028161;28;20248;-83
2021/01/29 11:38:47;;;;;;;0.27;0.27;;;11.50;99.90;;;;;;5061387;28;20203;-83
2021/01/29 11:41:20;;;;;;;0.27;0.27;;;11.60;99.90;;;;;;5039435;28;20201;-82
2021/01/29 11:43:58;;;;;;;0.00;0.00;;;11.50;99.90;;;;;;5033517;28;20188;-82
2021/01/29 11:46:52;;;;;;;0.10;0.10;;;11.60;99.90;;;;;;5036801;28;20231;-81
2021/01/29 11:49:23;;;;;;;0.00;0.00;;;11.70;99.90;;;;;;5037893;28;20650;-81
2021/01/29 11:52:07;;;;;;;0.00;0.00;;;11.90;99.90;;;;;;5031175;28;20188;-84
2021/01/29 11:54:49;;;;;;;0.40;0.40;;;12.00;99.90;;;;;;5033188;28;20173;-83
2021/01/29 11:58:06;;;;;;;0.00;0.00;;;12.10;99.90;;;;;;5050096;28;20177;-83
2021/01/29 12:00:56;;;;;;;0.30;0.30;;;12.00;99.90;;;;;;5034056;28;20247;-83
2021/01/29 12:03:46;;;;;;;0.10;0.10;;;11.90;99.90;;;;;;5021897;28;20181;-85
2021/01/29 12:06:21;;;;;;;0.10;0.10;;;11.90;99.90;;;;;;5039459;28;20273;-85
2021/01/29 12:09:00;;;;;;;0.10;0.10;;;12.00;99.90;;;;;;5021306;28;20659;-83
2021/01/29 12:11:49;;;;;;;0.00;0.00;;;11.80;99.90;;;;;;5019654;28;20685;-83
2021/01/29 12:14:53;;;;;;;0.30;0.30;;;11.90;99.90;;;;;;5035588;28;20219;-82
2021/01/29 12:17:26;;;;;;;0.10;0.10;;;11.80;99.90;;;;;;5032698;28;20272;-82
2021/01/29 12:19:59;;;;;;;0.00;0.00;;;11.90;99.90;;;;;;5029812;28;20224;-84
2021/01/29 12:22:48;;;;;;;0.00;0.00;;;12.00;99.90;;;;;;5034605;28;20185;-84
2021/01/29 12:26:09;;;;;;;0.27;0.27;;;12.10;99.90;;;;;;5045576;28;20269;-84
2021/01/29 12:28:58;;;;;;;0.27;0.27;;;12.20;99.90;;;;;;5027857;28;20183;-83
2021/01/29 12:32:02;;;;;;;0.00;0.00;;;12.20;99.90;;;;;;5038370;28;20774;-84
2021/01/29 12:34:30;;;;;;;0.10;0.10;;;12.10;99.90;;;;;;5029568;28;20193;-84
2021/01/29 12:37:24;;;;;;;0.10;0.10;;;12.00;99.90;;;;;;5028754;28;20198;-84
2021/01/29 12:39:58;;;;;;;0.83;0.53;;;12.00;99.90;;;;;;5042041;28;20302;-83
2021/01/29 12:42:27;;;;;;;0.40;0.37;;;12.00;99.90;;;;;;5034655;28;20664;-84
2021/01/29 12:44:58;;;;;;;0.10;0.10;;;12.20;99.90;;;;;;5035606;28;20186;-83
2021/01/29 12:47:54;;;;;;;0.00;0.00;;;12.10;99.90;;;;;;5027742;28;20664;-84
2021/01/29 12:50:37;;;;;;;0.10;0.10;;;12.10;99.90;;;;;;5039422;28;20204;-84
2021/01/29 12:53:18;;;;;;;0.00;0.00;;;12.00;99.90;;;;;;5053012;28;20179;-84
2021/01/29 12:55:55;;;;;;;0.20;0.20;;;12.00;99.90;;;;;;5035847;28;20182;-84
2021/01/29 12:58:21;;;;;;;0.00;0.00;;;12.10;99.90;;;;;;5036632;28;20566;-84
2021/01/29 13:00:47;;;;;;;0.10;0.10;;;12.10;99.90;;;;;;5033376;28;20206;-83
2021/01/29 13:03:55;;;;;;;0.00;0.00;;;12.00;99.90;;;;;;5044671;28;20541;-83
2021/01/29 13:06:29;;;;;;;2.93;0.20;;;12.10;99.90;;;;;;5047393;28;20239;-83
2021/01/29 13:09:01;;;;;;;0.70;0.70;;;12.10;99.90;;;;;;5040244;28;20225;-84
2021/01/29 13:12:00;;;;;;;1.87;0.83;;;11.90;99.90;;;;;;5045524;28;22018;-85
2021/01/29 13:14:40;;;;;;;0.10;0.10;;;12.00;99.90;;;;;;5049415;28;20197;-86
2021/01/29 13:17:20;;;;;;;0.10;0.10;;;12.40;99.90;;;;;;5046930;28;20596;-86
2021/01/29 13:19:56;;;;;;;0.37;0.37;;;12.50;99.90;;;;;;5032517;28;20222;-83
2021/01/29 13:22:43;;;;;;;0.10;0.10;;;12.70;99.90;;;;;;5031097;28;20189;-84
2021/01/29 13:25:08;;;;;;;0.17;0.17;;;12.80;99.90;;;;;;5033304;28;20186;-84
2021/01/29 13:27:47;;;;;;;0.10;0.10;;;12.90;99.90;;;;;;5032284;28;20189;-83
2021/01/29 13:30:34;;;;;;;0.30;0.30;;;13.10;99.90;;;;;;5040560;28;20210;-84
2021/01/29 13:33:24;;;;;;;0.73;0.20;;;12.90;99.90;;;;;;5038015;28;20215;-84
2021/01/29 13:36:18;;;;;;;0.20;0.20;;;12.70;99.90;;;;;;5023881;28;20785;-83
2021/01/29 13:38:44;;;;;;;0.10;0.10;;;12.60;99.90;;;;;;5014260;28;20310;-84
2021/01/29 13:41:19;;;;;;;0.60;0.37;;;12.60;99.90;;;;;;5030799;28;20208;-85
2021/01/29 13:43:46;;;;;;;0.27;0.27;;;12.50;99.90;;;;;;5040760;28;20553;-84
2021/01/29 13:46:29;;;;;;;2.80;0.60;;;12.80;99.90;;;;;;5026567;28;20588;-84
2021/01/29 13:49:15;;;;;;;0.00;0.00;;;12.90;99.90;;;;;;5036883;28;20193;-84
2021/01/29 13:51:41;;;;;;;1.40;0.23;;;12.70;99.90;;;;;;5047780;28;20197;-84
2021/01/29 13:54:12;;;;;;;0.33;0.33;;;12.50;99.90;;;;;;5034786;28;20187;-85
2021/01/29 13:56:48;;;;;;;1.60;0.77;;;12.40;99.90;;;;;;5033170;28;20542;-84
2021/01/29 13:59:38;;;;;;;0.13;0.13;;;12.20;99.90;;;;;;5033043;28;20215;-84
2021/01/29 14:02:26;;;;;;;0.10;0.10;;;12.10;99.90;;;;;;5027491;28;20684;-83
2021/01/29 14:05:03;;;;;;;0.17;0.10;;;12.00;99.90;;;;;;5045710;28;21158;-84
2021/01/29 14:07:28;;;;;;;0.10;0.10;;;11.90;99.90;;;;;;5024362;28;20189;-84
2021/01/29 14:09:54;;;;;;;1.70;0.30;;;12.00;99.90;;;;;;5024963;28;20250;-84
2021/01/29 14:12:37;;;;;;;0.10;0.10;;;12.20;99.90;;;;;;5050998;28;20191;-83
2021/01/29 14:15:25;;;;;;;0.93;0.93;;;12.20;99.90;;;;;;5034311;28;20199;-84
2021/01/29 14:18:09;;;;;;;0.57;0.57;;;12.20;99.90;;;;;;5029464;28;20203;-84
2021/01/29 14:20:50;;;;;;;0.10;0.10;;;12.10;99.90;;;;;;5036922;28;20240;-84
2021/01/29 14:23:24;;;;;;;0.03;0.03;;;11.90;99.90;;;;;;5030611;28;20267;-84